createdAt,value
2024-01-31T00:00:09.497Z,4.63
2024-01-31T00:01:11.564Z,2.60
2024-01-31T00:02:13.694Z,2.53
2024-01-31T00:03:15.636Z,3.13
2024-01-31T00:04:17.725Z,2.50
2024-01-31T00:05:20.005Z,3.00
2024-01-31T00:06:22.086Z,3.67
2024-01-31T00:07:24.100Z,2.70
2024-01-31T00:08:26.168Z,3.33
2024-01-31T00:09:28.114Z,3.88
2024-01-31T00:10:30.364Z,3.63
2024-01-31T00:11:32.295Z,2.17
2024-01-31T00:12:35.159Z,2.30
2024-01-31T00:13:37.158Z,5.63
2024-01-31T00:14:39.213Z,3.80
2024-01-31T00:15:41.174Z,5.65
2024-01-31T00:16:43.708Z,9.13
2024-01-31T00:17:45.733Z,2.95
2024-01-31T00:18:47.886Z,4.13
2024-01-31T00:19:49.917Z,5.43
2024-01-31T00:20:51.983Z,3.30
2024-01-31T00:21:54.071Z,5.67
2024-01-31T00:22:56.009Z,7.95
2024-01-31T00:23:57.974Z,5.80
2024-01-31T00:24:59.969Z,4.93
2024-01-31T00:26:02.091Z,3.60
2024-01-31T00:27:04.198Z,3.47
2024-01-31T00:28:09.014Z,5.63
2024-01-31T00:29:11.029Z,4.68
2024-01-31T00:30:13.538Z,3.20
2024-01-31T00:31:15.646Z,5.63
2024-01-31T00:32:17.581Z,6.27
2024-01-31T00:33:19.628Z,3.63
2024-01-31T00:34:21.786Z,6.05
2024-01-31T00:35:23.765Z,3.00
2024-01-31T00:36:29.503Z,3.67
2024-01-31T00:37:31.485Z,2.87
2024-01-31T00:38:33.468Z,2.40
2024-01-31T00:39:35.660Z,3.95
2024-01-31T00:40:37.778Z,3.60
2024-01-31T00:41:39.841Z,4.35
2024-01-31T00:42:43.471Z,5.20
2024-01-31T00:43:45.795Z,3.88
2024-01-31T00:44:47.872Z,4.07
2024-01-31T00:45:50.035Z,6.50
2024-01-31T00:46:52.177Z,3.33
2024-01-31T00:47:54.168Z,4.90
2024-01-31T00:48:56.896Z,3.20
2024-01-31T00:49:59.453Z,3.50
2024-01-31T00:51:01.383Z,5.45
2024-01-31T00:52:03.355Z,2.83
2024-01-31T00:53:05.390Z,2.70
2024-01-31T00:54:07.623Z,3.15
2024-01-31T00:55:09.861Z,3.13
2024-01-31T00:56:11.938Z,2.10
2024-01-31T00:57:13.868Z,3.38
2024-01-31T00:58:16.291Z,2.10
2024-01-31T00:59:19.459Z,2.70
2024-01-31T01:00:24.419Z,3.42
2024-01-31T01:01:26.400Z,2.90
2024-01-31T01:02:28.447Z,3.70
2024-01-31T01:03:40.943Z,4.43
2024-01-31T01:04:43.549Z,5.90
2024-01-31T01:05:45.578Z,4.13
2024-01-31T01:06:47.573Z,3.40
2024-01-31T01:07:49.933Z,3.30
2024-01-31T01:08:52.140Z,3.73
2024-01-31T01:09:54.041Z,6.20
2024-01-31T01:10:56.870Z,3.60
2024-01-31T01:11:59.004Z,5.40
2024-01-31T01:13:01.022Z,3.78
2024-01-31T01:14:02.950Z,3.40
2024-01-31T01:15:14.845Z,3.58
2024-01-31T01:16:18.247Z,3.47
2024-01-31T01:17:20.262Z,2.75
2024-01-31T01:18:22.287Z,2.65
2024-01-31T01:19:24.322Z,4.70
2024-01-31T01:20:26.453Z,6.00
2024-01-31T01:21:28.430Z,3.08
2024-01-31T01:22:30.463Z,3.33
2024-01-31T01:23:32.544Z,3.92
2024-01-31T01:24:34.618Z,3.87
2024-01-31T01:25:36.591Z,3.50
2024-01-31T01:26:41.954Z,3.40
2024-01-31T01:27:51.928Z,2.70
2024-01-31T01:28:54.076Z,4.18
2024-01-31T01:29:55.989Z,2.40
2024-01-31T01:30:58.096Z,5.05
2024-01-31T01:32:00.057Z,3.28
2024-01-31T01:33:04.465Z,3.22
2024-01-31T01:34:06.539Z,3.10
2024-01-31T01:35:08.547Z,3.27
2024-01-31T01:36:10.539Z,3.70
2024-01-31T01:37:12.463Z,3.25
2024-01-31T01:38:14.434Z,5.03
2024-01-31T01:39:16.324Z,4.03
2024-01-31T01:40:18.419Z,2.47
2024-01-31T01:41:21.064Z,2.92
2024-01-31T01:42:23.048Z,3.47
2024-01-31T01:43:25.598Z,4.28
2024-01-31T01:44:31.116Z,3.72
2024-01-31T01:45:33.122Z,2.27
2024-01-31T01:46:37.295Z,3.78
2024-01-31T01:47:44.164Z,2.28
2024-01-31T01:48:50.570Z,2.78
2024-01-31T01:49:52.647Z,2.67
2024-01-31T01:50:54.715Z,2.77
2024-01-31T01:51:56.754Z,2.38
2024-01-31T01:52:58.848Z,2.70
2024-01-31T01:54:01.504Z,4.57
2024-01-31T01:55:04.561Z,3.95
2024-01-31T01:56:09.980Z,2.43
2024-01-31T01:57:12.222Z,2.67
2024-01-31T01:58:14.419Z,2.80
2024-01-31T01:59:17.406Z,2.22
2024-01-31T02:00:19.657Z,2.60
2024-01-31T02:01:22.615Z,2.67
2024-01-31T02:02:25.530Z,2.45
2024-01-31T02:03:30.682Z,3.63
2024-01-31T02:04:32.760Z,2.70
2024-01-31T02:05:34.918Z,2.88
2024-01-31T02:06:37.461Z,2.67
2024-01-31T02:07:40.878Z,2.22
2024-01-31T02:08:43.322Z,2.67
2024-01-31T02:09:45.387Z,3.83
2024-01-31T02:10:47.568Z,4.63
2024-01-31T02:11:49.648Z,3.57
2024-01-31T02:12:51.644Z,3.63
2024-01-31T02:13:53.669Z,5.18
2024-01-31T02:14:57.295Z,1.90
2024-01-31T02:15:59.954Z,3.78
2024-01-31T02:17:01.913Z,2.43
2024-01-31T02:18:05.277Z,5.68
2024-01-31T02:19:07.410Z,5.22
2024-01-31T02:20:09.852Z,5.15
2024-01-31T02:21:12.145Z,4.00
2024-01-31T02:22:22.884Z,3.77
2024-01-31T02:23:25.265Z,2.65
2024-01-31T02:24:27.191Z,6.13
2024-01-31T02:25:29.196Z,3.95
2024-01-31T02:26:32.290Z,2.60
2024-01-31T02:27:34.162Z,3.27
2024-01-31T02:28:37.073Z,4.25
2024-01-31T02:29:39.640Z,5.22
2024-01-31T02:30:41.962Z,4.07
2024-01-31T02:31:43.930Z,2.60
2024-01-31T02:32:46.003Z,2.93
2024-01-31T02:33:48.258Z,3.28
2024-01-31T02:34:50.314Z,3.45
2024-01-31T02:35:52.366Z,3.03
2024-01-31T02:36:54.269Z,4.15
2024-01-31T02:37:58.782Z,2.30
2024-01-31T02:39:00.703Z,2.55
2024-01-31T02:40:03.399Z,2.80
2024-01-31T02:41:05.394Z,3.10
2024-01-31T02:42:09.123Z,3.63
2024-01-31T02:43:11.324Z,4.57
2024-01-31T02:44:13.360Z,2.35
2024-01-31T02:45:15.478Z,3.17
2024-01-31T02:46:17.635Z,3.40
2024-01-31T02:47:19.528Z,2.72
2024-01-31T02:48:21.579Z,3.30
2024-01-31T02:49:23.828Z,2.70
2024-01-31T02:50:28.067Z,2.97
2024-01-31T02:51:30.058Z,2.85
2024-01-31T02:52:32.127Z,2.47
2024-01-31T02:53:34.320Z,3.60
2024-01-31T02:54:36.234Z,3.33
2024-01-31T02:55:38.662Z,2.90
2024-01-31T02:56:40.652Z,3.17
2024-01-31T02:57:42.741Z,3.05
2024-01-31T02:58:44.795Z,2.93
2024-01-31T02:59:48.248Z,3.25
2024-01-31T03:00:50.303Z,3.42
2024-01-31T03:01:52.761Z,3.33
2024-01-31T03:02:54.739Z,3.22
2024-01-31T03:03:56.806Z,4.33
2024-01-31T03:04:58.934Z,2.45
2024-01-31T03:06:01.511Z,4.38
2024-01-31T03:07:03.742Z,4.03
2024-01-31T03:08:05.799Z,3.28
2024-01-31T03:09:07.808Z,4.10
2024-01-31T03:10:11.045Z,3.20
2024-01-31T03:11:13.350Z,4.45
2024-01-31T03:12:15.208Z,2.78
2024-01-31T03:13:17.205Z,4.40
2024-01-31T03:14:19.095Z,3.70
2024-01-31T03:15:21.048Z,2.60
2024-01-31T03:16:22.986Z,4.38
2024-01-31T03:17:24.977Z,2.65
2024-01-31T03:18:26.973Z,3.20
2024-01-31T03:19:30.848Z,2.83
2024-01-31T03:20:35.579Z,2.35
2024-01-31T03:21:37.684Z,2.95
2024-01-31T03:22:39.726Z,2.50
2024-01-31T03:23:42.240Z,3.85
2024-01-31T03:24:44.803Z,4.20
2024-01-31T03:25:46.753Z,2.97
2024-01-31T03:26:48.965Z,4.68
2024-01-31T03:27:51.016Z,3.50
2024-01-31T03:28:53.107Z,3.00
2024-01-31T03:29:55.081Z,4.33
2024-01-31T03:30:57.259Z,3.92
2024-01-31T03:31:59.507Z,5.03
2024-01-31T03:33:01.585Z,4.03
2024-01-31T03:34:03.647Z,4.53
2024-01-31T03:35:05.817Z,2.73
2024-01-31T03:36:11.828Z,2.50
2024-01-31T03:37:13.814Z,4.25
2024-01-31T03:38:15.809Z,3.50
2024-01-31T03:39:20.144Z,3.75
2024-01-31T03:40:22.160Z,3.17
2024-01-31T03:41:24.347Z,2.83
2024-01-31T03:42:28.239Z,3.22
2024-01-31T03:43:30.209Z,3.90
2024-01-31T03:44:33.532Z,4.65
2024-01-31T03:45:38.968Z,4.30
2024-01-31T03:46:43.250Z,4.55
2024-01-31T03:47:45.839Z,3.75
2024-01-31T03:48:48.156Z,4.55
2024-01-31T03:49:52.547Z,3.97
2024-01-31T03:50:54.617Z,3.10
2024-01-31T03:51:56.530Z,3.08
2024-01-31T03:52:58.800Z,3.55
2024-01-31T03:54:00.796Z,2.85
2024-01-31T03:55:03.086Z,3.03
2024-01-31T03:56:05.569Z,3.80
2024-01-31T03:57:07.561Z,3.17
2024-01-31T03:58:09.510Z,4.63
2024-01-31T03:59:11.970Z,4.63
2024-01-31T04:00:14.378Z,5.10
2024-01-31T04:01:18.196Z,5.87
2024-01-31T04:02:20.255Z,3.72
2024-01-31T04:03:22.688Z,3.88
2024-01-31T04:04:24.754Z,2.65
2024-01-31T04:05:27.022Z,3.15
2024-01-31T04:06:29.292Z,4.50
2024-01-31T04:07:31.755Z,3.20
2024-01-31T04:08:33.880Z,3.80
2024-01-31T04:09:36.147Z,5.03
2024-01-31T04:10:38.434Z,3.70
2024-01-31T04:11:40.551Z,3.70
2024-01-31T04:12:43.064Z,4.20
2024-01-31T04:13:46.038Z,4.13
2024-01-31T04:14:48.917Z,5.22
2024-01-31T04:15:50.851Z,4.43
2024-01-31T04:16:52.777Z,3.57
2024-01-31T04:17:54.722Z,5.88
2024-01-31T04:18:56.782Z,3.97
2024-01-31T04:19:58.756Z,3.38
2024-01-31T04:21:00.702Z,3.40
2024-01-31T04:22:03.333Z,3.60
2024-01-31T04:23:05.979Z,4.18
2024-01-31T04:24:07.967Z,4.32
2024-01-31T04:25:09.957Z,4.28
2024-01-31T04:26:11.873Z,3.67
2024-01-31T04:27:14.142Z,4.00
2024-01-31T04:28:16.794Z,3.85
2024-01-31T04:29:19.039Z,5.45
2024-01-31T04:30:21.040Z,6.70
2024-01-31T04:31:23.086Z,4.05
2024-01-31T04:32:25.482Z,5.03
2024-01-31T04:33:27.531Z,3.28
2024-01-31T04:34:30.855Z,4.88
2024-01-31T04:35:33.216Z,3.35
2024-01-31T04:36:35.251Z,4.78
2024-01-31T04:37:37.591Z,3.57
2024-01-31T04:38:39.570Z,3.47
2024-01-31T04:39:41.515Z,6.38
2024-01-31T04:40:43.492Z,4.00
2024-01-31T04:41:48.229Z,4.15
2024-01-31T04:42:53.284Z,4.27
2024-01-31T04:43:56.684Z,3.58
2024-01-31T04:44:59.195Z,5.63
2024-01-31T04:46:01.300Z,5.18
2024-01-31T04:47:04.224Z,3.75
2024-01-31T04:48:06.785Z,3.47
2024-01-31T04:49:09.062Z,3.03
2024-01-31T04:50:13.352Z,4.97
2024-01-31T04:51:15.435Z,2.80
2024-01-31T04:52:17.335Z,4.18
2024-01-31T04:53:19.345Z,5.10
2024-01-31T04:54:21.358Z,3.47
2024-01-31T04:55:23.619Z,4.53
2024-01-31T04:56:26.031Z,5.22
2024-01-31T04:57:28.016Z,3.70
2024-01-31T04:58:30.060Z,4.13
2024-01-31T04:59:32.085Z,4.55
2024-01-31T05:00:34.030Z,4.25
2024-01-31T05:01:36.059Z,4.68
2024-01-31T05:02:38.028Z,4.18
2024-01-31T05:03:40.527Z,3.73
2024-01-31T05:04:42.664Z,3.20
2024-01-31T05:05:44.784Z,3.40
2024-01-31T05:06:47.378Z,3.90
2024-01-31T05:07:49.294Z,4.65
2024-01-31T05:08:51.886Z,3.60
2024-01-31T05:09:53.838Z,4.70
2024-01-31T05:10:56.297Z,3.85
2024-01-31T05:11:58.257Z,3.40
2024-01-31T05:13:00.293Z,4.07
2024-01-31T05:14:02.249Z,4.67
2024-01-31T05:15:05.779Z,4.68
2024-01-31T05:16:11.107Z,4.43
2024-01-31T05:17:17.119Z,3.38
2024-01-31T05:18:19.386Z,5.22
2024-01-31T05:19:21.663Z,5.23
2024-01-31T05:20:23.726Z,5.95
2024-01-31T05:21:25.652Z,5.78
2024-01-31T05:22:27.765Z,3.20
2024-01-31T05:23:29.978Z,4.53
2024-01-31T05:24:31.962Z,3.27
2024-01-31T05:25:33.996Z,3.35
2024-01-31T05:26:36.054Z,3.63
2024-01-31T05:27:38.078Z,4.53
2024-01-31T05:28:40.978Z,4.28
2024-01-31T05:29:43.113Z,3.80
2024-01-31T05:30:45.195Z,5.95
2024-01-31T05:31:47.345Z,4.75
2024-01-31T05:32:49.415Z,4.80
2024-01-31T05:33:52.837Z,5.72
2024-01-31T05:34:54.991Z,4.00
2024-01-31T05:35:59.731Z,5.57
2024-01-31T05:37:01.738Z,7.07
2024-01-31T05:38:04.413Z,5.43
2024-01-31T05:39:06.361Z,5.15
2024-01-31T05:40:09.624Z,4.20
2024-01-31T05:41:11.634Z,4.57
2024-01-31T05:42:13.663Z,4.65
2024-01-31T05:43:15.654Z,5.90
2024-01-31T05:44:17.662Z,4.57
2024-01-31T05:45:19.730Z,5.07
2024-01-31T05:46:21.608Z,5.65
2024-01-31T05:47:25.325Z,5.28
2024-01-31T05:48:27.330Z,6.32
2024-01-31T05:49:29.329Z,7.68
2024-01-31T05:50:31.580Z,7.80
2024-01-31T05:51:33.634Z,4.78
2024-01-31T05:52:35.726Z,3.97
2024-01-31T05:53:38.354Z,5.15
2024-01-31T05:54:40.564Z,4.93
2024-01-31T05:55:42.658Z,4.13
2024-01-31T05:56:44.608Z,4.40
2024-01-31T05:57:50.549Z,4.97
2024-01-31T05:58:52.512Z,4.72
2024-01-31T05:59:54.517Z,5.10
2024-01-31T06:00:56.718Z,4.30
2024-01-31T06:01:59.833Z,4.22
2024-01-31T06:03:01.847Z,4.28
2024-01-31T06:04:05.323Z,4.22
2024-01-31T06:05:07.947Z,4.50
2024-01-31T06:06:09.928Z,5.30
2024-01-31T06:07:13.699Z,4.38
2024-01-31T06:08:15.921Z,4.53
2024-01-31T06:09:17.966Z,4.88
2024-01-31T06:10:21.115Z,4.50
2024-01-31T06:11:23.258Z,4.23
2024-01-31T06:12:25.292Z,5.40
2024-01-31T06:13:28.859Z,4.80
2024-01-31T06:14:31.076Z,4.88
2024-01-31T06:15:33.007Z,5.70
2024-01-31T06:16:35.251Z,5.00
2024-01-31T06:17:39.233Z,4.90
2024-01-31T06:18:41.518Z,7.05
2024-01-31T06:19:43.572Z,7.38
2024-01-31T06:20:45.724Z,6.82
2024-01-31T06:21:47.770Z,6.27
2024-01-31T06:22:50.320Z,6.47
2024-01-31T06:23:52.882Z,8.40
2024-01-31T06:24:54.819Z,7.63
2024-01-31T06:25:56.745Z,6.40
2024-01-31T06:26:58.639Z,6.73
2024-01-31T06:28:00.626Z,7.75
2024-01-31T06:29:02.540Z,10.52
2024-01-31T06:30:05.928Z,9.35
2024-01-31T06:31:28.951Z,10.23
2024-01-31T06:32:33.749Z,12.83
2024-01-31T06:33:37.310Z,12.07
2024-01-31T06:34:39.431Z,11.75
2024-01-31T06:35:48.758Z,11.35
2024-01-31T06:36:50.819Z,10.27
2024-01-31T06:37:52.757Z,9.87
2024-01-31T06:38:54.812Z,10.38
2024-01-31T06:39:56.889Z,12.65
2024-01-31T06:40:59.801Z,11.90
2024-01-31T06:42:01.847Z,12.65
2024-01-31T06:43:04.382Z,14.13
2024-01-31T06:44:06.880Z,13.48
2024-01-31T06:45:09.572Z,15.43
2024-01-31T06:46:12.266Z,14.82
2024-01-31T06:47:14.444Z,15.23
2024-01-31T06:48:16.561Z,16.07
2024-01-31T06:49:18.786Z,14.85
2024-01-31T06:50:21.776Z,15.60
2024-01-31T06:51:23.896Z,14.27
2024-01-31T06:52:26.214Z,13.02
2024-01-31T06:53:30.325Z,15.30
2024-01-31T06:54:32.285Z,12.05
2024-01-31T06:55:34.294Z,13.80
2024-01-31T06:56:37.039Z,14.40
2024-01-31T06:57:39.093Z,16.58
2024-01-31T06:58:41.233Z,15.23
2024-01-31T06:59:43.179Z,16.05
2024-01-31T07:00:45.119Z,13.68
2024-01-31T07:01:47.540Z,16.60
2024-01-31T07:02:49.775Z,15.75
2024-01-31T07:03:51.940Z,13.63
2024-01-31T07:04:54.000Z,11.27
2024-01-31T07:05:55.966Z,14.00
2024-01-31T07:06:57.923Z,13.02
2024-01-31T07:08:00.089Z,12.52
2024-01-31T07:09:02.057Z,9.90
2024-01-31T07:10:04.891Z,10.77
2024-01-31T07:11:09.273Z,13.02
2024-01-31T07:12:11.328Z,12.15
2024-01-31T07:13:13.338Z,12.27
2024-01-31T07:14:15.769Z,13.30
2024-01-31T07:15:19.417Z,12.55
2024-01-31T07:16:21.574Z,14.38
2024-01-31T07:17:24.380Z,8.45
2024-01-31T07:18:26.386Z,7.97
2024-01-31T07:19:29.092Z,8.37
2024-01-31T07:20:31.169Z,9.57
2024-01-31T07:21:33.226Z,8.57
2024-01-31T07:22:37.237Z,8.52
2024-01-31T07:23:40.218Z,10.65
2024-01-31T07:24:42.859Z,10.47
2024-01-31T07:25:44.869Z,8.60
2024-01-31T07:26:48.229Z,9.68
2024-01-31T07:27:51.339Z,9.88
2024-01-31T07:28:53.615Z,10.68
2024-01-31T07:29:55.818Z,9.80
2024-01-31T07:30:57.993Z,10.50
2024-01-31T07:32:00.152Z,8.52
2024-01-31T07:33:02.211Z,7.72
2024-01-31T07:34:04.255Z,8.52
2024-01-31T07:35:08.718Z,8.67
2024-01-31T07:36:11.042Z,8.82
2024-01-31T07:37:13.110Z,7.13
2024-01-31T07:38:16.183Z,9.07
2024-01-31T07:39:18.888Z,10.88
2024-01-31T07:40:20.967Z,8.43
2024-01-31T07:41:22.971Z,9.82
2024-01-31T07:42:25.078Z,11.88
2024-01-31T07:43:27.161Z,10.23
2024-01-31T07:44:31.864Z,11.57
2024-01-31T07:45:34.835Z,9.30
2024-01-31T07:46:36.866Z,11.52
2024-01-31T07:47:40.006Z,11.63
2024-01-31T07:48:42.867Z,10.82
2024-01-31T07:49:45.217Z,11.35
2024-01-31T07:50:47.436Z,11.67
2024-01-31T07:51:54.039Z,11.15
2024-01-31T07:52:55.955Z,10.02
2024-01-31T07:53:59.699Z,12.05
2024-01-31T07:55:03.504Z,12.15
2024-01-31T07:56:06.232Z,11.67
2024-01-31T07:57:08.384Z,12.35
2024-01-31T07:58:10.535Z,12.38
2024-01-31T07:59:12.794Z,14.23
2024-01-31T08:00:15.064Z,12.82
2024-01-31T08:01:17.317Z,11.87
2024-01-31T08:02:19.582Z,11.65
2024-01-31T08:03:21.807Z,12.57
2024-01-31T08:04:24.070Z,12.77
2024-01-31T08:05:26.098Z,13.75
2024-01-31T08:06:28.250Z,11.87
2024-01-31T08:07:30.297Z,11.80
2024-01-31T08:08:32.321Z,12.70
2024-01-31T08:09:34.309Z,11.88
2024-01-31T08:10:36.463Z,12.10
2024-01-31T08:11:44.371Z,14.73
2024-01-31T08:12:48.150Z,13.32
2024-01-31T08:13:50.103Z,13.52
2024-01-31T08:14:52.126Z,17.27
2024-01-31T08:15:54.220Z,13.30
2024-01-31T08:16:57.045Z,13.80
2024-01-31T08:17:59.061Z,12.80
2024-01-31T08:19:01.527Z,12.63
2024-01-31T08:20:05.318Z,10.70
2024-01-31T08:21:08.077Z,11.52
2024-01-31T08:22:12.537Z,9.10
2024-01-31T08:23:14.867Z,9.68
2024-01-31T08:24:17.169Z,10.30
2024-01-31T08:25:19.618Z,9.25
2024-01-31T08:26:23.483Z,11.25
2024-01-31T08:27:25.809Z,10.90
2024-01-31T08:28:27.984Z,12.63
2024-01-31T08:29:30.134Z,12.85
2024-01-31T08:30:32.270Z,12.02
2024-01-31T08:31:34.203Z,11.70
2024-01-31T08:32:36.481Z,13.27
2024-01-31T08:33:38.775Z,14.35
2024-01-31T08:34:40.990Z,12.95
2024-01-31T08:35:44.724Z,11.45
2024-01-31T08:36:46.662Z,11.30
2024-01-31T08:37:49.854Z,9.43
2024-01-31T08:38:52.236Z,8.85
2024-01-31T08:39:54.450Z,10.45
2024-01-31T08:40:56.822Z,10.35
2024-01-31T08:41:58.727Z,11.27
2024-01-31T08:43:01.120Z,10.53
2024-01-31T08:44:03.435Z,10.82
2024-01-31T08:45:09.527Z,10.07
2024-01-31T08:46:12.566Z,11.73
2024-01-31T08:47:18.896Z,9.18
2024-01-31T08:48:22.054Z,9.43
2024-01-31T08:49:24.171Z,10.63
2024-01-31T08:50:26.668Z,10.15
2024-01-31T08:51:28.707Z,9.40
2024-01-31T08:52:30.985Z,10.32
2024-01-31T08:53:33.399Z,8.77
2024-01-31T08:54:35.391Z,8.70
2024-01-31T08:55:37.849Z,9.75
2024-01-31T08:56:40.502Z,10.77
2024-01-31T08:57:43.174Z,10.75
2024-01-31T08:58:45.389Z,11.13
2024-01-31T08:59:47.394Z,12.48
2024-01-31T09:00:51.724Z,12.38
2024-01-31T09:01:53.819Z,11.63
2024-01-31T09:13:48.686Z,7.07
2024-01-31T09:31:45.241Z,6.55
2024-01-31T09:32:47.589Z,7.35
2024-01-31T09:39:38.106Z,5.57
2024-01-31T09:40:40.093Z,5.78
2024-01-31T09:41:42.239Z,8.70
2024-01-31T09:42:47.472Z,6.97
2024-01-31T09:43:49.473Z,9.05
2024-01-31T09:44:51.974Z,7.78
2024-01-31T09:45:56.595Z,10.77
2024-01-31T09:47:00.459Z,8.35
2024-01-31T09:48:02.941Z,8.70
2024-01-31T09:49:05.162Z,7.47
2024-01-31T09:50:11.232Z,8.13
2024-01-31T09:51:15.726Z,7.60
2024-01-31T09:52:19.735Z,8.77
2024-01-31T09:53:23.885Z,7.30
2024-01-31T09:54:27.656Z,7.28
2024-01-31T09:55:30.924Z,9.55
2024-01-31T09:56:35.594Z,10.55
2024-01-31T09:57:39.561Z,10.90
2024-01-31T09:58:45.014Z,9.25
2024-01-31T09:59:47.863Z,10.70
2024-01-31T10:00:56.023Z,9.32
2024-01-31T10:02:00.845Z,9.77
2024-01-31T10:03:03.252Z,10.32
2024-01-31T10:04:05.534Z,13.13
2024-01-31T10:05:08.160Z,11.55
2024-01-31T10:06:12.717Z,12.15
2024-01-31T10:07:31.975Z,10.00
2024-01-31T10:08:34.224Z,13.30
2024-01-31T10:09:36.140Z,10.67
2024-01-31T10:10:41.102Z,11.93
2024-01-31T10:11:48.653Z,13.02
2024-01-31T10:12:50.834Z,12.50
2024-01-31T10:13:52.950Z,11.35
2024-01-31T10:14:58.324Z,11.20
2024-01-31T10:16:00.558Z,12.52
2024-01-31T10:17:03.589Z,11.85
2024-01-31T10:18:06.163Z,10.30
2024-01-31T10:19:08.335Z,12.82
2024-01-31T10:20:13.001Z,11.33
2024-01-31T10:21:20.740Z,10.68
2024-01-31T10:22:24.294Z,12.00
2024-01-31T10:23:27.436Z,10.73
2024-01-31T10:24:29.592Z,12.98
2024-01-31T10:25:32.196Z,11.82
2024-01-31T10:26:37.560Z,10.82
2024-01-31T10:27:40.106Z,9.68
2024-01-31T10:28:45.679Z,15.40
2024-01-31T10:29:54.549Z,10.90
2024-01-31T10:30:59.423Z,11.07
2024-01-31T10:32:02.444Z,10.15
2024-01-31T10:33:05.687Z,10.40
2024-01-31T10:34:08.810Z,10.23
2024-01-31T10:35:26.928Z,9.40
2024-01-31T10:38:49.078Z,10.68
2024-01-31T10:39:53.891Z,11.18
2024-01-31T10:40:58.384Z,11.25
2024-01-31T10:42:02.146Z,11.63
2024-01-31T10:43:05.220Z,11.80
2024-01-31T10:44:12.432Z,11.55
2024-01-31T10:45:14.917Z,11.18
2024-01-31T10:46:17.091Z,11.43
2024-01-31T10:47:19.054Z,12.45
2024-01-31T10:48:21.774Z,12.75
2024-01-31T10:49:23.992Z,13.63
2024-01-31T10:50:26.052Z,12.77
2024-01-31T10:51:30.209Z,14.40
2024-01-31T10:52:35.888Z,13.63
2024-01-31T10:53:39.305Z,12.95
2024-01-31T10:54:49.734Z,14.38
2024-01-31T10:55:57.064Z,13.02
2024-01-31T10:57:00.394Z,14.07
2024-01-31T10:58:03.383Z,14.35
2024-01-31T10:59:08.838Z,14.88
2024-01-31T11:00:22.017Z,13.47
2024-01-31T11:01:30.888Z,15.30
2024-01-31T11:02:34.987Z,14.93
2024-01-31T11:03:37.229Z,15.02
2024-01-31T11:04:40.492Z,15.57
2024-01-31T11:05:43.638Z,14.47
2024-01-31T11:06:52.768Z,15.73
2024-01-31T11:07:58.554Z,16.25
2024-01-31T11:09:01.400Z,15.55
2024-01-31T11:10:07.117Z,16.60
2024-01-31T11:11:12.562Z,17.50
2024-01-31T11:12:17.937Z,16.00
2024-01-31T11:13:20.106Z,15.82
2024-01-31T11:14:31.297Z,16.55
2024-01-31T11:15:36.695Z,16.73
2024-01-31T11:16:39.106Z,16.77
2024-01-31T11:17:46.366Z,16.58
2024-01-31T11:18:53.384Z,16.50
2024-01-31T11:20:01.217Z,18.60
2024-01-31T11:21:08.253Z,15.82
2024-01-31T11:22:10.449Z,17.42
2024-01-31T11:23:24.252Z,19.47
2024-01-31T11:24:30.564Z,17.48
2024-01-31T11:25:38.696Z,17.45
2024-01-31T11:26:41.624Z,17.45
2024-01-31T11:27:43.984Z,16.27
2024-01-31T11:28:47.255Z,17.20
2024-01-31T11:29:52.689Z,15.50
2024-01-31T11:30:55.391Z,17.15
2024-01-31T11:31:58.971Z,17.73
2024-01-31T11:33:05.044Z,19.60
2024-01-31T11:34:07.570Z,16.63
2024-01-31T11:35:09.739Z,17.95
2024-01-31T11:36:12.038Z,19.17
2024-01-31T11:37:14.109Z,17.05
2024-01-31T11:38:17.216Z,19.40
2024-01-31T11:39:19.191Z,16.40
2024-01-31T11:40:21.195Z,17.40
2024-01-31T11:41:24.387Z,17.15
2024-01-31T11:42:26.893Z,18.80
2024-01-31T11:43:28.960Z,17.23
2024-01-31T11:44:31.839Z,17.88
2024-01-31T11:45:34.069Z,17.33
2024-01-31T11:46:36.446Z,16.67
2024-01-31T11:47:40.575Z,16.47
2024-01-31T11:48:46.247Z,16.05
2024-01-31T11:49:51.095Z,17.10
2024-01-31T11:50:55.224Z,17.08
2024-01-31T11:51:57.520Z,15.77
2024-01-31T11:52:59.735Z,17.58
2024-01-31T11:54:02.132Z,15.63
2024-01-31T11:55:04.692Z,16.38
2024-01-31T11:56:07.441Z,17.35
2024-01-31T11:57:09.696Z,16.85
2024-01-31T11:58:12.216Z,17.15
2024-01-31T11:59:14.594Z,16.25
2024-01-31T12:00:19.529Z,16.80
2024-01-31T12:01:21.904Z,16.90
2024-01-31T12:02:25.290Z,17.58
2024-01-31T12:03:27.309Z,16.48
2024-01-31T12:04:29.674Z,16.45
2024-01-31T12:05:32.031Z,17.20
2024-01-31T12:06:35.541Z,15.77
2024-01-31T12:07:37.950Z,15.82
2024-01-31T12:08:47.363Z,15.43
2024-01-31T12:09:49.489Z,15.80
2024-01-31T12:10:51.652Z,16.83
2024-01-31T12:11:54.176Z,14.02
2024-01-31T12:12:59.473Z,13.30
2024-01-31T12:14:02.416Z,13.93
2024-01-31T12:15:05.996Z,13.27
2024-01-31T12:16:10.291Z,13.73
2024-01-31T12:17:26.438Z,13.48
2024-01-31T12:18:28.720Z,14.43
2024-01-31T12:19:34.267Z,13.57
2024-01-31T12:20:39.379Z,12.60
2024-01-31T12:21:43.556Z,12.82
2024-01-31T12:22:46.531Z,12.63
2024-01-31T12:23:48.489Z,13.30
2024-01-31T12:24:50.459Z,14.83
2024-01-31T12:25:52.430Z,14.85
2024-01-31T12:26:56.181Z,13.73
2024-01-31T12:27:58.261Z,13.95
2024-01-31T12:29:00.877Z,12.68
2024-01-31T12:30:03.182Z,12.43
2024-01-31T12:31:05.420Z,12.23
2024-01-31T12:32:08.265Z,12.88
2024-01-31T12:33:10.341Z,13.95
2024-01-31T12:34:12.322Z,12.82
2024-01-31T12:35:14.924Z,13.43
2024-01-31T12:36:17.179Z,13.80
2024-01-31T12:37:19.416Z,12.48
2024-01-31T12:38:21.678Z,15.15
2024-01-31T12:39:23.747Z,14.73
2024-01-31T12:40:27.247Z,13.75
2024-01-31T12:41:29.566Z,13.32
2024-01-31T12:42:31.950Z,11.60
2024-01-31T12:43:34.697Z,13.98
2024-01-31T12:44:37.290Z,14.38
2024-01-31T12:45:39.822Z,13.70
2024-01-31T12:46:42.285Z,13.25
2024-01-31T12:47:46.787Z,14.30
2024-01-31T12:48:51.290Z,13.93
2024-01-31T12:49:53.415Z,13.25
2024-01-31T12:50:57.458Z,14.30
2024-01-31T12:51:59.345Z,15.00
2024-01-31T12:53:01.452Z,14.77
2024-01-31T12:54:04.023Z,13.70
2024-01-31T12:55:06.619Z,12.03
2024-01-31T12:56:08.552Z,12.70
2024-01-31T12:57:10.558Z,12.85
2024-01-31T12:58:12.393Z,13.43
2024-01-31T12:59:19.929Z,13.90
2024-01-31T13:00:23.203Z,12.88
2024-01-31T13:01:25.736Z,13.30
2024-01-31T13:02:27.933Z,12.68
2024-01-31T13:03:30.501Z,11.38
2024-01-31T13:04:32.933Z,11.13
2024-01-31T13:05:35.778Z,10.82
2024-01-31T13:06:39.779Z,10.30
2024-01-31T13:07:42.433Z,10.33
2024-01-31T13:08:45.346Z,9.30
2024-01-31T13:09:47.850Z,10.25
2024-01-31T13:10:49.884Z,10.05
2024-01-31T13:11:52.090Z,9.20
2024-01-31T13:12:54.357Z,9.23
2024-01-31T13:13:56.338Z,9.77
2024-01-31T13:14:58.600Z,9.30
2024-01-31T13:16:00.779Z,7.93
2024-01-31T13:17:03.357Z,9.10
2024-01-31T13:18:06.282Z,9.27
2024-01-31T13:19:09.664Z,8.75
2024-01-31T13:20:13.053Z,8.15
2024-01-31T13:21:15.178Z,7.90
2024-01-31T13:22:17.295Z,7.75
2024-01-31T13:23:19.564Z,7.78
2024-01-31T13:24:22.545Z,8.20
2024-01-31T13:25:24.845Z,7.70
2024-01-31T13:26:26.902Z,7.22
2024-01-31T13:27:29.037Z,7.95
2024-01-31T13:28:31.420Z,7.07
2024-01-31T13:29:33.751Z,6.78
2024-01-31T13:30:35.988Z,7.43
2024-01-31T13:31:39.356Z,7.97
2024-01-31T13:32:42.116Z,6.78
2024-01-31T13:33:46.066Z,6.50
2024-01-31T13:34:48.462Z,4.93
2024-01-31T13:35:50.504Z,5.63
2024-01-31T13:36:53.319Z,5.43
2024-01-31T13:37:56.573Z,5.40
2024-01-31T13:39:00.135Z,5.15
2024-01-31T13:40:02.802Z,6.20
2024-01-31T13:41:04.886Z,6.93
2024-01-31T13:42:09.059Z,7.03
2024-01-31T13:43:13.000Z,6.60
2024-01-31T13:44:15.117Z,6.45
2024-01-31T13:45:17.483Z,5.97
2024-01-31T13:46:19.608Z,6.40
2024-01-31T13:47:23.345Z,7.00
2024-01-31T13:48:25.343Z,6.22
2024-01-31T13:49:27.488Z,6.82
2024-01-31T13:50:29.837Z,6.10
2024-01-31T13:51:31.866Z,5.82
2024-01-31T13:52:33.862Z,5.43
2024-01-31T13:53:36.917Z,7.40
2024-01-31T13:54:38.884Z,6.13
2024-01-31T13:55:41.251Z,5.63
2024-01-31T13:56:43.443Z,4.78
2024-01-31T13:57:45.502Z,5.85
2024-01-31T13:58:48.684Z,5.55
2024-01-31T13:59:50.771Z,4.90
2024-01-31T14:00:52.781Z,5.20
2024-01-31T14:01:54.919Z,4.88
2024-01-31T14:02:56.897Z,5.65
2024-01-31T14:03:58.990Z,4.45
2024-01-31T14:05:01.008Z,5.47
2024-01-31T14:06:03.390Z,6.27
2024-01-31T14:07:05.602Z,5.88
2024-01-31T14:08:08.253Z,6.63
2024-01-31T14:09:10.192Z,5.43
2024-01-31T14:10:12.300Z,4.97
2024-01-31T14:11:14.561Z,6.03
2024-01-31T14:12:16.643Z,5.65
2024-01-31T14:13:19.131Z,4.25
2024-01-31T14:14:21.617Z,4.43
2024-01-31T14:15:23.717Z,4.13
2024-01-31T14:16:25.628Z,7.43
2024-01-31T14:17:27.655Z,5.93
2024-01-31T14:18:30.018Z,4.32
2024-01-31T14:19:32.273Z,3.92
2024-01-31T14:20:34.485Z,4.72
2024-01-31T14:21:36.505Z,5.70
2024-01-31T14:22:56.566Z,4.70